<?xml version="1.0" encoding="UTF-8" standalone="no" ?>
<gpx xmlns="http://www.topografix.com/GPX/1/1" xmlns:xsi="http://www.w3.org/2001/XMLSchema-instance" xsi:schemaLocation="http://www.topografix.com/GPX/1/1 http://www.topografix.com/GPX/1/1/gpx.xsd" version="1.1" creator="VisuGPX - https://www.visugpx.com">
  <metadata>
    <name>Bez de Naussac : Foulées de la Diège : 5,2 km</name>
    <desc><![CDATA[Bez de Naussac : Foulées de la Diège : 5,2 km]]></desc>
  </metadata>
  <trk>
    <name><![CDATA[Bez de Naussac : Foulées de la Diège : 5,2 km (5'59)]]></name>
    <desc><![CDATA[Bez de Naussac : Foulées de la Diège : 5,2 km (5'59)

5:29
5:54
6:11
6:09
6:22
0:35 pour 0,12 km

TOTAL : 30:40 (5:59)  5,12 km
]]></desc>
    <trkseg>
      <trkpt lat="44.50387" lon="2.10675">
        <ele>266.79998779297</ele>
        <time>2016-08-13T16:03:09.000Z</time>
      </trkpt>
      <trkpt lat="44.50383" lon="2.10677">
        <ele>266.79998779297</ele>
        <time>2016-08-13T16:03:12.000Z</time>
      </trkpt>
      <trkpt lat="44.50374" lon="2.10677">
        <ele>266</ele>
        <time>2016-08-13T16:03:15.000Z</time>
      </trkpt>
      <trkpt lat="44.50366" lon="2.10671">
        <ele>264.39999389648</ele>
        <time>2016-08-13T16:03:18.000Z</time>
      </trkpt>
      <trkpt lat="44.50364" lon="2.10662">
        <ele>263.79998779297</ele>
        <time>2016-08-13T16:03:20.000Z</time>
      </trkpt>
      <trkpt lat="44.5037" lon="2.10644">
        <ele>263.20001220703</ele>
        <time>2016-08-13T16:03:24.000Z</time>
      </trkpt>
      <trkpt lat="44.50381" lon="2.10625">
        <ele>262.20001220703</ele>
        <time>2016-08-13T16:03:29.000Z</time>
      </trkpt>
      <trkpt lat="44.50393" lon="2.10606">
        <ele>261</ele>
        <time>2016-08-13T16:03:34.000Z</time>
      </trkpt>
      <trkpt lat="44.50406" lon="2.10591">
        <ele>259.79998779297</ele>
        <time>2016-08-13T16:03:39.000Z</time>
      </trkpt>
      <trkpt lat="44.50419" lon="2.10575">
        <ele>258.60000610352</ele>
        <time>2016-08-13T16:03:44.000Z</time>
      </trkpt>
      <trkpt lat="44.50433" lon="2.1056">
        <ele>257.39999389648</ele>
        <time>2016-08-13T16:03:50.000Z</time>
      </trkpt>
      <trkpt lat="44.50448" lon="2.10544">
        <ele>256.39999389648</ele>
        <time>2016-08-13T16:03:56.000Z</time>
      </trkpt>
      <trkpt lat="44.5046" lon="2.1053">
        <ele>255.39999389648</ele>
        <time>2016-08-13T16:04:01.000Z</time>
      </trkpt>
      <trkpt lat="44.50469" lon="2.1052">
        <ele>254.39999389648</ele>
        <time>2016-08-13T16:04:05.000Z</time>
      </trkpt>
      <trkpt lat="44.50482" lon="2.10503">
        <ele>253.19999694824</ele>
        <time>2016-08-13T16:04:11.000Z</time>
      </trkpt>
      <trkpt lat="44.50489" lon="2.1049">
        <ele>252.19999694824</ele>
        <time>2016-08-13T16:04:15.000Z</time>
      </trkpt>
      <trkpt lat="44.50499" lon="2.10469">
        <ele>251</ele>
        <time>2016-08-13T16:04:21.000Z</time>
      </trkpt>
      <trkpt lat="44.50505" lon="2.10454">
        <ele>250</ele>
        <time>2016-08-13T16:04:25.000Z</time>
      </trkpt>
      <trkpt lat="44.50512" lon="2.10436">
        <ele>248.80000305176</ele>
        <time>2016-08-13T16:04:30.000Z</time>
      </trkpt>
      <trkpt lat="44.50516" lon="2.10421">
        <ele>247.80000305176</ele>
        <time>2016-08-13T16:04:34.000Z</time>
      </trkpt>
      <trkpt lat="44.5052" lon="2.10402">
        <ele>246.60000610352</ele>
        <time>2016-08-13T16:04:39.000Z</time>
      </trkpt>
      <trkpt lat="44.50525" lon="2.10378">
        <ele>245.39999389648</ele>
        <time>2016-08-13T16:04:45.000Z</time>
      </trkpt>
      <trkpt lat="44.50531" lon="2.10353">
        <ele>244.39999389648</ele>
        <time>2016-08-13T16:04:51.000Z</time>
      </trkpt>
      <trkpt lat="44.50536" lon="2.10337">
        <ele>243.19999694824</ele>
        <time>2016-08-13T16:04:55.000Z</time>
      </trkpt>
      <trkpt lat="44.50546" lon="2.10321">
        <ele>242.39999389648</ele>
        <time>2016-08-13T16:05:01.000Z</time>
      </trkpt>
      <trkpt lat="44.50545" lon="2.10318">
        <ele>242.19999694824</ele>
        <time>2016-08-13T16:05:03.000Z</time>
      </trkpt>
      <trkpt lat="44.50541" lon="2.10318">
        <ele>241.19999694824</ele>
        <time>2016-08-13T16:05:05.000Z</time>
      </trkpt>
      <trkpt lat="44.50533" lon="2.10321">
        <ele>240</ele>
        <time>2016-08-13T16:05:08.000Z</time>
      </trkpt>
      <trkpt lat="44.50513" lon="2.10321">
        <ele>239.60000610352</ele>
        <time>2016-08-13T16:05:15.000Z</time>
      </trkpt>
      <trkpt lat="44.50501" lon="2.10301">
        <ele>239</ele>
        <time>2016-08-13T16:05:22.000Z</time>
      </trkpt>
      <trkpt lat="44.50497" lon="2.10276">
        <ele>238.80000305176</ele>
        <time>2016-08-13T16:05:30.000Z</time>
      </trkpt>
      <trkpt lat="44.50487" lon="2.10255">
        <ele>238.60000610352</ele>
        <time>2016-08-13T16:05:37.000Z</time>
      </trkpt>
      <trkpt lat="44.50473" lon="2.10238">
        <ele>238.80000305176</ele>
        <time>2016-08-13T16:05:43.000Z</time>
      </trkpt>
      <trkpt lat="44.50458" lon="2.10222">
        <ele>239.19999694824</ele>
        <time>2016-08-13T16:05:50.000Z</time>
      </trkpt>
      <trkpt lat="44.50444" lon="2.10208">
        <ele>239.60000610352</ele>
        <time>2016-08-13T16:05:57.000Z</time>
      </trkpt>
      <trkpt lat="44.50427" lon="2.10191">
        <ele>239.19999694824</ele>
        <time>2016-08-13T16:06:05.000Z</time>
      </trkpt>
      <trkpt lat="44.50411" lon="2.10177">
        <ele>239</ele>
        <time>2016-08-13T16:06:12.000Z</time>
      </trkpt>
      <trkpt lat="44.50401" lon="2.1017">
        <ele>238</ele>
        <time>2016-08-13T16:06:16.000Z</time>
      </trkpt>
      <trkpt lat="44.50382" lon="2.10163">
        <ele>237.39999389648</ele>
        <time>2016-08-13T16:06:23.000Z</time>
      </trkpt>
      <trkpt lat="44.50365" lon="2.10157">
        <ele>237</ele>
        <time>2016-08-13T16:06:30.000Z</time>
      </trkpt>
      <trkpt lat="44.50362" lon="2.10156">
        <ele>237</ele>
        <time>2016-08-13T16:06:31.000Z</time>
      </trkpt>
      <trkpt lat="44.50343" lon="2.10151">
        <ele>237.39999389648</ele>
        <time>2016-08-13T16:06:39.000Z</time>
      </trkpt>
      <trkpt lat="44.50324" lon="2.10144">
        <ele>236.80000305176</ele>
        <time>2016-08-13T16:06:47.000Z</time>
      </trkpt>
      <trkpt lat="44.50304" lon="2.10139">
        <ele>236.80000305176</ele>
        <time>2016-08-13T16:06:56.000Z</time>
      </trkpt>
      <trkpt lat="44.50285" lon="2.10127">
        <ele>236.19999694824</ele>
        <time>2016-08-13T16:07:03.000Z</time>
      </trkpt>
      <trkpt lat="44.50279" lon="2.10123">
        <ele>236</ele>
        <time>2016-08-13T16:07:05.000Z</time>
      </trkpt>
      <trkpt lat="44.50262" lon="2.1011">
        <ele>236</ele>
        <time>2016-08-13T16:07:12.000Z</time>
      </trkpt>
      <trkpt lat="44.50246" lon="2.10098">
        <ele>236.60000610352</ele>
        <time>2016-08-13T16:07:19.000Z</time>
      </trkpt>
      <trkpt lat="44.5023" lon="2.10087">
        <ele>236.80000305176</ele>
        <time>2016-08-13T16:07:26.000Z</time>
      </trkpt>
      <trkpt lat="44.50223" lon="2.10081">
        <ele>237</ele>
        <time>2016-08-13T16:07:29.000Z</time>
      </trkpt>
      <trkpt lat="44.50207" lon="2.10064">
        <ele>236.39999389648</ele>
        <time>2016-08-13T16:07:37.000Z</time>
      </trkpt>
      <trkpt lat="44.50191" lon="2.10049">
        <ele>236.19999694824</ele>
        <time>2016-08-13T16:07:45.000Z</time>
      </trkpt>
      <trkpt lat="44.50174" lon="2.10035">
        <ele>236.19999694824</ele>
        <time>2016-08-13T16:07:53.000Z</time>
      </trkpt>
      <trkpt lat="44.50159" lon="2.10021">
        <ele>236.60000610352</ele>
        <time>2016-08-13T16:08:00.000Z</time>
      </trkpt>
      <trkpt lat="44.50143" lon="2.10006">
        <ele>236</ele>
        <time>2016-08-13T16:08:07.000Z</time>
      </trkpt>
      <trkpt lat="44.50141" lon="2.10003">
        <ele>236</ele>
        <time>2016-08-13T16:08:08.000Z</time>
      </trkpt>
      <trkpt lat="44.50125" lon="2.09987">
        <ele>236</ele>
        <time>2016-08-13T16:08:16.000Z</time>
      </trkpt>
      <trkpt lat="44.50111" lon="2.09971">
        <ele>236.19999694824</ele>
        <time>2016-08-13T16:08:24.000Z</time>
      </trkpt>
      <trkpt lat="44.50097" lon="2.09953">
        <ele>236.39999389648</ele>
        <time>2016-08-13T16:08:32.000Z</time>
      </trkpt>
      <trkpt lat="44.50085" lon="2.09939">
        <ele>236.80000305176</ele>
        <time>2016-08-13T16:08:38.000Z</time>
      </trkpt>
      <trkpt lat="44.50072" lon="2.09922">
        <ele>236.60000610352</ele>
        <time>2016-08-13T16:08:45.000Z</time>
      </trkpt>
      <trkpt lat="44.50057" lon="2.09904">
        <ele>236.60000610352</ele>
        <time>2016-08-13T16:08:53.000Z</time>
      </trkpt>
      <trkpt lat="44.50042" lon="2.09889">
        <ele>236.80000305176</ele>
        <time>2016-08-13T16:09:01.000Z</time>
      </trkpt>
      <trkpt lat="44.50023" lon="2.09879">
        <ele>237</ele>
        <time>2016-08-13T16:09:10.000Z</time>
      </trkpt>
      <trkpt lat="44.50004" lon="2.09871">
        <ele>237.19999694824</ele>
        <time>2016-08-13T16:09:19.000Z</time>
      </trkpt>
      <trkpt lat="44.49985" lon="2.09865">
        <ele>237</ele>
        <time>2016-08-13T16:09:27.000Z</time>
      </trkpt>
      <trkpt lat="44.49965" lon="2.0986">
        <ele>237.19999694824</ele>
        <time>2016-08-13T16:09:35.000Z</time>
      </trkpt>
      <trkpt lat="44.49946" lon="2.09856">
        <ele>237</ele>
        <time>2016-08-13T16:09:42.000Z</time>
      </trkpt>
      <trkpt lat="44.49928" lon="2.0985">
        <ele>237</ele>
        <time>2016-08-13T16:09:49.000Z</time>
      </trkpt>
      <trkpt lat="44.4991" lon="2.09843">
        <ele>237.19999694824</ele>
        <time>2016-08-13T16:09:57.000Z</time>
      </trkpt>
      <trkpt lat="44.49891" lon="2.09845">
        <ele>237.60000610352</ele>
        <time>2016-08-13T16:10:05.000Z</time>
      </trkpt>
      <trkpt lat="44.49875" lon="2.09857">
        <ele>237</ele>
        <time>2016-08-13T16:10:12.000Z</time>
      </trkpt>
      <trkpt lat="44.49859" lon="2.09869">
        <ele>237.19999694824</ele>
        <time>2016-08-13T16:10:19.000Z</time>
      </trkpt>
      <trkpt lat="44.49841" lon="2.09882">
        <ele>237.39999389648</ele>
        <time>2016-08-13T16:10:27.000Z</time>
      </trkpt>
      <trkpt lat="44.49822" lon="2.09894">
        <ele>237.60000610352</ele>
        <time>2016-08-13T16:10:35.000Z</time>
      </trkpt>
      <trkpt lat="44.49805" lon="2.09907">
        <ele>237.60000610352</ele>
        <time>2016-08-13T16:10:43.000Z</time>
      </trkpt>
      <trkpt lat="44.49788" lon="2.09918">
        <ele>237.80000305176</ele>
        <time>2016-08-13T16:10:51.000Z</time>
      </trkpt>
      <trkpt lat="44.49771" lon="2.0993">
        <ele>237.60000610352</ele>
        <time>2016-08-13T16:10:59.000Z</time>
      </trkpt>
      <trkpt lat="44.4976" lon="2.09938">
        <ele>238</ele>
        <time>2016-08-13T16:11:04.000Z</time>
      </trkpt>
      <trkpt lat="44.49744" lon="2.09949">
        <ele>238.19999694824</ele>
        <time>2016-08-13T16:11:11.000Z</time>
      </trkpt>
      <trkpt lat="44.49726" lon="2.09961">
        <ele>238.19999694824</ele>
        <time>2016-08-13T16:11:19.000Z</time>
      </trkpt>
      <trkpt lat="44.49708" lon="2.09971">
        <ele>238.60000610352</ele>
        <time>2016-08-13T16:11:27.000Z</time>
      </trkpt>
      <trkpt lat="44.49691" lon="2.09961">
        <ele>238.39999389648</ele>
        <time>2016-08-13T16:11:34.000Z</time>
      </trkpt>
      <trkpt lat="44.49679" lon="2.0994">
        <ele>237.80000305176</ele>
        <time>2016-08-13T16:11:42.000Z</time>
      </trkpt>
      <trkpt lat="44.49665" lon="2.0992">
        <ele>237.60000610352</ele>
        <time>2016-08-13T16:11:50.000Z</time>
      </trkpt>
      <trkpt lat="44.49653" lon="2.099">
        <ele>237.60000610352</ele>
        <time>2016-08-13T16:11:57.000Z</time>
      </trkpt>
      <trkpt lat="44.49635" lon="2.09885">
        <ele>237.60000610352</ele>
        <time>2016-08-13T16:12:04.000Z</time>
      </trkpt>
      <trkpt lat="44.49617" lon="2.09876">
        <ele>237.80000305176</ele>
        <time>2016-08-13T16:12:11.000Z</time>
      </trkpt>
      <trkpt lat="44.49598" lon="2.09865">
        <ele>237.60000610352</ele>
        <time>2016-08-13T16:12:18.000Z</time>
      </trkpt>
      <trkpt lat="44.49581" lon="2.09853">
        <ele>237.60000610352</ele>
        <time>2016-08-13T16:12:25.000Z</time>
      </trkpt>
      <trkpt lat="44.49563" lon="2.09839">
        <ele>237.80000305176</ele>
        <time>2016-08-13T16:12:33.000Z</time>
      </trkpt>
      <trkpt lat="44.49545" lon="2.09827">
        <ele>238</ele>
        <time>2016-08-13T16:12:41.000Z</time>
      </trkpt>
      <trkpt lat="44.49527" lon="2.09817">
        <ele>238.19999694824</ele>
        <time>2016-08-13T16:12:48.000Z</time>
      </trkpt>
      <trkpt lat="44.4951" lon="2.09821">
        <ele>238.60000610352</ele>
        <time>2016-08-13T16:12:55.000Z</time>
      </trkpt>
      <trkpt lat="44.49494" lon="2.09838">
        <ele>238.60000610352</ele>
        <time>2016-08-13T16:13:03.000Z</time>
      </trkpt>
      <trkpt lat="44.49481" lon="2.09856">
        <ele>238.39999389648</ele>
        <time>2016-08-13T16:13:10.000Z</time>
      </trkpt>
      <trkpt lat="44.49469" lon="2.09875">
        <ele>238.39999389648</ele>
        <time>2016-08-13T16:13:17.000Z</time>
      </trkpt>
      <trkpt lat="44.49455" lon="2.09893">
        <ele>238.80000305176</ele>
        <time>2016-08-13T16:13:24.000Z</time>
      </trkpt>
      <trkpt lat="44.49446" lon="2.09899">
        <ele>238.80000305176</ele>
        <time>2016-08-13T16:13:29.000Z</time>
      </trkpt>
      <trkpt lat="44.49439" lon="2.09893">
        <ele>239</ele>
        <time>2016-08-13T16:13:32.000Z</time>
      </trkpt>
      <trkpt lat="44.49423" lon="2.09878">
        <ele>238.80000305176</ele>
        <time>2016-08-13T16:13:39.000Z</time>
      </trkpt>
      <trkpt lat="44.49407" lon="2.09862">
        <ele>239</ele>
        <time>2016-08-13T16:13:46.000Z</time>
      </trkpt>
      <trkpt lat="44.49392" lon="2.09846">
        <ele>239</ele>
        <time>2016-08-13T16:13:53.000Z</time>
      </trkpt>
      <trkpt lat="44.49376" lon="2.09831">
        <ele>239.19999694824</ele>
        <time>2016-08-13T16:14:00.000Z</time>
      </trkpt>
      <trkpt lat="44.49361" lon="2.09816">
        <ele>239.39999389648</ele>
        <time>2016-08-13T16:14:08.000Z</time>
      </trkpt>
      <trkpt lat="44.49345" lon="2.09798">
        <ele>239.80000305176</ele>
        <time>2016-08-13T16:14:16.000Z</time>
      </trkpt>
      <trkpt lat="44.49327" lon="2.09788">
        <ele>239.80000305176</ele>
        <time>2016-08-13T16:14:24.000Z</time>
      </trkpt>
      <trkpt lat="44.49311" lon="2.09778">
        <ele>240.19999694824</ele>
        <time>2016-08-13T16:14:31.000Z</time>
      </trkpt>
      <trkpt lat="44.49309" lon="2.09777">
        <ele>240</ele>
        <time>2016-08-13T16:14:32.000Z</time>
      </trkpt>
      <trkpt lat="44.49294" lon="2.09757">
        <ele>239.60000610352</ele>
        <time>2016-08-13T16:14:39.000Z</time>
      </trkpt>
      <trkpt lat="44.49284" lon="2.09737">
        <ele>239.60000610352</ele>
        <time>2016-08-13T16:14:45.000Z</time>
      </trkpt>
      <trkpt lat="44.49273" lon="2.09713">
        <ele>239.80000305176</ele>
        <time>2016-08-13T16:14:52.000Z</time>
      </trkpt>
      <trkpt lat="44.49264" lon="2.09691">
        <ele>239.80000305176</ele>
        <time>2016-08-13T16:14:59.000Z</time>
      </trkpt>
      <trkpt lat="44.49253" lon="2.09668">
        <ele>239.80000305176</ele>
        <time>2016-08-13T16:15:07.000Z</time>
      </trkpt>
      <trkpt lat="44.49244" lon="2.09644">
        <ele>240</ele>
        <time>2016-08-13T16:15:15.000Z</time>
      </trkpt>
      <trkpt lat="44.49235" lon="2.09621">
        <ele>240</ele>
        <time>2016-08-13T16:15:22.000Z</time>
      </trkpt>
      <trkpt lat="44.49229" lon="2.09597">
        <ele>240.19999694824</ele>
        <time>2016-08-13T16:15:29.000Z</time>
      </trkpt>
      <trkpt lat="44.4922" lon="2.09574">
        <ele>240.19999694824</ele>
        <time>2016-08-13T16:15:36.000Z</time>
      </trkpt>
      <trkpt lat="44.4921" lon="2.09549">
        <ele>240.19999694824</ele>
        <time>2016-08-13T16:15:44.000Z</time>
      </trkpt>
      <trkpt lat="44.492" lon="2.09527">
        <ele>240.60000610352</ele>
        <time>2016-08-13T16:15:51.000Z</time>
      </trkpt>
      <trkpt lat="44.49191" lon="2.09503">
        <ele>240.60000610352</ele>
        <time>2016-08-13T16:15:59.000Z</time>
      </trkpt>
      <trkpt lat="44.49182" lon="2.09478">
        <ele>240.80000305176</ele>
        <time>2016-08-13T16:16:07.000Z</time>
      </trkpt>
      <trkpt lat="44.49173" lon="2.09454">
        <ele>241</ele>
        <time>2016-08-13T16:16:15.000Z</time>
      </trkpt>
      <trkpt lat="44.49172" lon="2.09451">
        <ele>241.19999694824</ele>
        <time>2016-08-13T16:16:16.000Z</time>
      </trkpt>
      <trkpt lat="44.49162" lon="2.09428">
        <ele>241.60000610352</ele>
        <time>2016-08-13T16:16:24.000Z</time>
      </trkpt>
      <trkpt lat="44.49153" lon="2.09404">
        <ele>241.80000305176</ele>
        <time>2016-08-13T16:16:32.000Z</time>
      </trkpt>
      <trkpt lat="44.49145" lon="2.09383">
        <ele>242.19999694824</ele>
        <time>2016-08-13T16:16:39.000Z</time>
      </trkpt>
      <trkpt lat="44.49136" lon="2.09358">
        <ele>242.60000610352</ele>
        <time>2016-08-13T16:16:47.000Z</time>
      </trkpt>
      <trkpt lat="44.49127" lon="2.09336">
        <ele>242.60000610352</ele>
        <time>2016-08-13T16:16:55.000Z</time>
      </trkpt>
      <trkpt lat="44.49118" lon="2.09314">
        <ele>243.19999694824</ele>
        <time>2016-08-13T16:17:03.000Z</time>
      </trkpt>
      <trkpt lat="44.49108" lon="2.09291">
        <ele>244.19999694824</ele>
        <time>2016-08-13T16:17:12.000Z</time>
      </trkpt>
      <trkpt lat="44.49108" lon="2.09288">
        <ele>244.19999694824</ele>
        <time>2016-08-13T16:17:15.000Z</time>
      </trkpt>
      <trkpt lat="44.49098" lon="2.09293">
        <ele>245</ele>
        <time>2016-08-13T16:17:31.000Z</time>
      </trkpt>
      <trkpt lat="44.49092" lon="2.09297">
        <ele>245.39999389648</ele>
        <time>2016-08-13T16:17:34.000Z</time>
      </trkpt>
      <trkpt lat="44.49077" lon="2.09311">
        <ele>246.19999694824</ele>
        <time>2016-08-13T16:17:42.000Z</time>
      </trkpt>
      <trkpt lat="44.49074" lon="2.09316">
        <ele>246.39999389648</ele>
        <time>2016-08-13T16:17:44.000Z</time>
      </trkpt>
      <trkpt lat="44.49068" lon="2.09342">
        <ele>247.60000610352</ele>
        <time>2016-08-13T16:17:53.000Z</time>
      </trkpt>
      <trkpt lat="44.49058" lon="2.09361">
        <ele>248.60000610352</ele>
        <time>2016-08-13T16:18:01.000Z</time>
      </trkpt>
      <trkpt lat="44.4905" lon="2.09374">
        <ele>249.60000610352</ele>
        <time>2016-08-13T16:18:07.000Z</time>
      </trkpt>
      <trkpt lat="44.49049" lon="2.09399">
        <ele>248.60000610352</ele>
        <time>2016-08-13T16:18:15.000Z</time>
      </trkpt>
      <trkpt lat="44.49049" lon="2.09403">
        <ele>248.39999389648</ele>
        <time>2016-08-13T16:18:16.000Z</time>
      </trkpt>
      <trkpt lat="44.49046" lon="2.09425">
        <ele>247.39999389648</ele>
        <time>2016-08-13T16:18:22.000Z</time>
      </trkpt>
      <trkpt lat="44.49044" lon="2.09443">
        <ele>246.39999389648</ele>
        <time>2016-08-13T16:18:27.000Z</time>
      </trkpt>
      <trkpt lat="44.49041" lon="2.09462">
        <ele>245.19999694824</ele>
        <time>2016-08-13T16:18:32.000Z</time>
      </trkpt>
      <trkpt lat="44.4904" lon="2.09483">
        <ele>244.19999694824</ele>
        <time>2016-08-13T16:18:38.000Z</time>
      </trkpt>
      <trkpt lat="44.49038" lon="2.09511">
        <ele>243.39999389648</ele>
        <time>2016-08-13T16:18:45.000Z</time>
      </trkpt>
      <trkpt lat="44.49037" lon="2.09523">
        <ele>243</ele>
        <time>2016-08-13T16:18:48.000Z</time>
      </trkpt>
      <trkpt lat="44.49035" lon="2.09551">
        <ele>243</ele>
        <time>2016-08-13T16:18:55.000Z</time>
      </trkpt>
      <trkpt lat="44.49033" lon="2.09577">
        <ele>242.80000305176</ele>
        <time>2016-08-13T16:19:02.000Z</time>
      </trkpt>
      <trkpt lat="44.4903" lon="2.09602">
        <ele>242.39999389648</ele>
        <time>2016-08-13T16:19:09.000Z</time>
      </trkpt>
      <trkpt lat="44.49026" lon="2.09629">
        <ele>242.60000610352</ele>
        <time>2016-08-13T16:19:17.000Z</time>
      </trkpt>
      <trkpt lat="44.49022" lon="2.09654">
        <ele>242.80000305176</ele>
        <time>2016-08-13T16:19:24.000Z</time>
      </trkpt>
      <trkpt lat="44.49018" lon="2.09682">
        <ele>242.60000610352</ele>
        <time>2016-08-13T16:19:32.000Z</time>
      </trkpt>
      <trkpt lat="44.49014" lon="2.0971">
        <ele>242.80000305176</ele>
        <time>2016-08-13T16:19:40.000Z</time>
      </trkpt>
      <trkpt lat="44.49012" lon="2.09736">
        <ele>242.60000610352</ele>
        <time>2016-08-13T16:19:48.000Z</time>
      </trkpt>
      <trkpt lat="44.49011" lon="2.09764">
        <ele>242.80000305176</ele>
        <time>2016-08-13T16:19:56.000Z</time>
      </trkpt>
      <trkpt lat="44.49011" lon="2.09791">
        <ele>243.19999694824</ele>
        <time>2016-08-13T16:20:04.000Z</time>
      </trkpt>
      <trkpt lat="44.4901" lon="2.09817">
        <ele>243.80000305176</ele>
        <time>2016-08-13T16:20:11.000Z</time>
      </trkpt>
      <trkpt lat="44.49009" lon="2.09843">
        <ele>243.39999389648</ele>
        <time>2016-08-13T16:20:18.000Z</time>
      </trkpt>
      <trkpt lat="44.49008" lon="2.09869">
        <ele>243</ele>
        <time>2016-08-13T16:20:25.000Z</time>
      </trkpt>
      <trkpt lat="44.49012" lon="2.09895">
        <ele>242.80000305176</ele>
        <time>2016-08-13T16:20:33.000Z</time>
      </trkpt>
      <trkpt lat="44.49021" lon="2.09919">
        <ele>242.80000305176</ele>
        <time>2016-08-13T16:20:41.000Z</time>
      </trkpt>
      <trkpt lat="44.49024" lon="2.09925">
        <ele>242.80000305176</ele>
        <time>2016-08-13T16:20:43.000Z</time>
      </trkpt>
      <trkpt lat="44.49034" lon="2.09949">
        <ele>242.60000610352</ele>
        <time>2016-08-13T16:20:51.000Z</time>
      </trkpt>
      <trkpt lat="44.49045" lon="2.09972">
        <ele>242.80000305176</ele>
        <time>2016-08-13T16:20:59.000Z</time>
      </trkpt>
      <trkpt lat="44.49055" lon="2.09995">
        <ele>242.80000305176</ele>
        <time>2016-08-13T16:21:07.000Z</time>
      </trkpt>
      <trkpt lat="44.49067" lon="2.10013">
        <ele>242.80000305176</ele>
        <time>2016-08-13T16:21:14.000Z</time>
      </trkpt>
      <trkpt lat="44.49081" lon="2.10035">
        <ele>242.39999389648</ele>
        <time>2016-08-13T16:21:22.000Z</time>
      </trkpt>
      <trkpt lat="44.49094" lon="2.10055">
        <ele>242.60000610352</ele>
        <time>2016-08-13T16:21:29.000Z</time>
      </trkpt>
      <trkpt lat="44.49107" lon="2.10073">
        <ele>242.39999389648</ele>
        <time>2016-08-13T16:21:36.000Z</time>
      </trkpt>
      <trkpt lat="44.49119" lon="2.10094">
        <ele>242.39999389648</ele>
        <time>2016-08-13T16:21:43.000Z</time>
      </trkpt>
      <trkpt lat="44.49127" lon="2.10119">
        <ele>242.19999694824</ele>
        <time>2016-08-13T16:21:51.000Z</time>
      </trkpt>
      <trkpt lat="44.49132" lon="2.10132">
        <ele>242</ele>
        <time>2016-08-13T16:21:55.000Z</time>
      </trkpt>
      <trkpt lat="44.49142" lon="2.10154">
        <ele>242</ele>
        <time>2016-08-13T16:22:02.000Z</time>
      </trkpt>
      <trkpt lat="44.49152" lon="2.10177">
        <ele>241.80000305176</ele>
        <time>2016-08-13T16:22:10.000Z</time>
      </trkpt>
      <trkpt lat="44.49162" lon="2.102">
        <ele>242</ele>
        <time>2016-08-13T16:22:17.000Z</time>
      </trkpt>
      <trkpt lat="44.49174" lon="2.10224">
        <ele>242</ele>
        <time>2016-08-13T16:22:24.000Z</time>
      </trkpt>
      <trkpt lat="44.49184" lon="2.10247">
        <ele>242.19999694824</ele>
        <time>2016-08-13T16:22:31.000Z</time>
      </trkpt>
      <trkpt lat="44.49195" lon="2.10268">
        <ele>242.19999694824</ele>
        <time>2016-08-13T16:22:38.000Z</time>
      </trkpt>
      <trkpt lat="44.49203" lon="2.10291">
        <ele>242.19999694824</ele>
        <time>2016-08-13T16:22:46.000Z</time>
      </trkpt>
      <trkpt lat="44.49213" lon="2.10313">
        <ele>242.39999389648</ele>
        <time>2016-08-13T16:22:54.000Z</time>
      </trkpt>
      <trkpt lat="44.49221" lon="2.10337">
        <ele>242.39999389648</ele>
        <time>2016-08-13T16:23:02.000Z</time>
      </trkpt>
      <trkpt lat="44.49218" lon="2.10362">
        <ele>242.39999389648</ele>
        <time>2016-08-13T16:23:10.000Z</time>
      </trkpt>
      <trkpt lat="44.49213" lon="2.10383">
        <ele>243.19999694824</ele>
        <time>2016-08-13T16:23:18.000Z</time>
      </trkpt>
      <trkpt lat="44.49209" lon="2.10409">
        <ele>243.60000610352</ele>
        <time>2016-08-13T16:23:27.000Z</time>
      </trkpt>
      <trkpt lat="44.49214" lon="2.10438">
        <ele>243.60000610352</ele>
        <time>2016-08-13T16:23:35.000Z</time>
      </trkpt>
      <trkpt lat="44.49217" lon="2.10464">
        <ele>244</ele>
        <time>2016-08-13T16:23:42.000Z</time>
      </trkpt>
      <trkpt lat="44.49219" lon="2.10479">
        <ele>244.19999694824</ele>
        <time>2016-08-13T16:23:46.000Z</time>
      </trkpt>
      <trkpt lat="44.49221" lon="2.10505">
        <ele>244.60000610352</ele>
        <time>2016-08-13T16:23:53.000Z</time>
      </trkpt>
      <trkpt lat="44.49223" lon="2.10531">
        <ele>244.80000305176</ele>
        <time>2016-08-13T16:24:00.000Z</time>
      </trkpt>
      <trkpt lat="44.49227" lon="2.10556">
        <ele>244.80000305176</ele>
        <time>2016-08-13T16:24:08.000Z</time>
      </trkpt>
      <trkpt lat="44.49232" lon="2.10581">
        <ele>244.80000305176</ele>
        <time>2016-08-13T16:24:16.000Z</time>
      </trkpt>
      <trkpt lat="44.49234" lon="2.10587">
        <ele>245.19999694824</ele>
        <time>2016-08-13T16:24:18.000Z</time>
      </trkpt>
      <trkpt lat="44.49243" lon="2.1061">
        <ele>245.80000305176</ele>
        <time>2016-08-13T16:24:26.000Z</time>
      </trkpt>
      <trkpt lat="44.49256" lon="2.10628">
        <ele>246.19999694824</ele>
        <time>2016-08-13T16:24:33.000Z</time>
      </trkpt>
      <trkpt lat="44.49264" lon="2.10641">
        <ele>246.39999389648</ele>
        <time>2016-08-13T16:24:38.000Z</time>
      </trkpt>
      <trkpt lat="44.49277" lon="2.10661">
        <ele>246.80000305176</ele>
        <time>2016-08-13T16:24:46.000Z</time>
      </trkpt>
      <trkpt lat="44.49291" lon="2.10679">
        <ele>247.19999694824</ele>
        <time>2016-08-13T16:24:54.000Z</time>
      </trkpt>
      <trkpt lat="44.49298" lon="2.10685">
        <ele>247.39999389648</ele>
        <time>2016-08-13T16:24:57.000Z</time>
      </trkpt>
      <trkpt lat="44.49311" lon="2.10704">
        <ele>247.80000305176</ele>
        <time>2016-08-13T16:25:06.000Z</time>
      </trkpt>
      <trkpt lat="44.4932" lon="2.10719">
        <ele>248.39999389648</ele>
        <time>2016-08-13T16:25:13.000Z</time>
      </trkpt>
      <trkpt lat="44.49332" lon="2.10736">
        <ele>249.39999389648</ele>
        <time>2016-08-13T16:25:21.000Z</time>
      </trkpt>
      <trkpt lat="44.49346" lon="2.10756">
        <ele>249.80000305176</ele>
        <time>2016-08-13T16:25:30.000Z</time>
      </trkpt>
      <trkpt lat="44.49359" lon="2.10774">
        <ele>250.39999389648</ele>
        <time>2016-08-13T16:25:39.000Z</time>
      </trkpt>
      <trkpt lat="44.49372" lon="2.10794">
        <ele>250.80000305176</ele>
        <time>2016-08-13T16:25:47.000Z</time>
      </trkpt>
      <trkpt lat="44.4938" lon="2.10812">
        <ele>251.60000610352</ele>
        <time>2016-08-13T16:25:53.000Z</time>
      </trkpt>
      <trkpt lat="44.4939" lon="2.10836">
        <ele>252</ele>
        <time>2016-08-13T16:26:01.000Z</time>
      </trkpt>
      <trkpt lat="44.49395" lon="2.10861">
        <ele>252.19999694824</ele>
        <time>2016-08-13T16:26:08.000Z</time>
      </trkpt>
      <trkpt lat="44.49398" lon="2.10878">
        <ele>252.60000610352</ele>
        <time>2016-08-13T16:26:13.000Z</time>
      </trkpt>
      <trkpt lat="44.49402" lon="2.10905">
        <ele>252.80000305176</ele>
        <time>2016-08-13T16:26:22.000Z</time>
      </trkpt>
      <trkpt lat="44.49403" lon="2.10932">
        <ele>253.39999389648</ele>
        <time>2016-08-13T16:26:30.000Z</time>
      </trkpt>
      <trkpt lat="44.49403" lon="2.10953">
        <ele>253.60000610352</ele>
        <time>2016-08-13T16:26:36.000Z</time>
      </trkpt>
      <trkpt lat="44.49402" lon="2.1098">
        <ele>254.19999694824</ele>
        <time>2016-08-13T16:26:44.000Z</time>
      </trkpt>
      <trkpt lat="44.49404" lon="2.11006">
        <ele>254.39999389648</ele>
        <time>2016-08-13T16:26:52.000Z</time>
      </trkpt>
      <trkpt lat="44.49404" lon="2.11008">
        <ele>254.80000305176</ele>
        <time>2016-08-13T16:26:53.000Z</time>
      </trkpt>
      <trkpt lat="44.49405" lon="2.11035">
        <ele>255.19999694824</ele>
        <time>2016-08-13T16:27:01.000Z</time>
      </trkpt>
      <trkpt lat="44.49407" lon="2.11062">
        <ele>255.39999389648</ele>
        <time>2016-08-13T16:27:09.000Z</time>
      </trkpt>
      <trkpt lat="44.49408" lon="2.11072">
        <ele>255.80000305176</ele>
        <time>2016-08-13T16:27:12.000Z</time>
      </trkpt>
      <trkpt lat="44.4941" lon="2.11099">
        <ele>256.60000610352</ele>
        <time>2016-08-13T16:27:20.000Z</time>
      </trkpt>
      <trkpt lat="44.49411" lon="2.11108">
        <ele>257</ele>
        <time>2016-08-13T16:27:23.000Z</time>
      </trkpt>
      <trkpt lat="44.49415" lon="2.11118">
        <ele>257.60000610352</ele>
        <time>2016-08-13T16:27:28.000Z</time>
      </trkpt>
      <trkpt lat="44.49416" lon="2.11115">
        <ele>258.20001220703</ele>
        <time>2016-08-13T16:27:30.000Z</time>
      </trkpt>
      <trkpt lat="44.4942" lon="2.11089">
        <ele>257.79998779297</ele>
        <time>2016-08-13T16:27:37.000Z</time>
      </trkpt>
      <trkpt lat="44.49424" lon="2.11063">
        <ele>258</ele>
        <time>2016-08-13T16:27:44.000Z</time>
      </trkpt>
      <trkpt lat="44.4943" lon="2.11037">
        <ele>258.20001220703</ele>
        <time>2016-08-13T16:27:52.000Z</time>
      </trkpt>
      <trkpt lat="44.4944" lon="2.11015">
        <ele>258.60000610352</ele>
        <time>2016-08-13T16:28:00.000Z</time>
      </trkpt>
      <trkpt lat="44.49452" lon="2.11007">
        <ele>259.20001220703</ele>
        <time>2016-08-13T16:28:06.000Z</time>
      </trkpt>
      <trkpt lat="44.49471" lon="2.11">
        <ele>260.20001220703</ele>
        <time>2016-08-13T16:28:15.000Z</time>
      </trkpt>
      <trkpt lat="44.49474" lon="2.10999">
        <ele>260.39999389648</ele>
        <time>2016-08-13T16:28:17.000Z</time>
      </trkpt>
      <trkpt lat="44.49492" lon="2.10993">
        <ele>261</ele>
        <time>2016-08-13T16:28:25.000Z</time>
      </trkpt>
      <trkpt lat="44.49501" lon="2.1099">
        <ele>261.39999389648</ele>
        <time>2016-08-13T16:28:29.000Z</time>
      </trkpt>
      <trkpt lat="44.49518" lon="2.1098">
        <ele>262.39999389648</ele>
        <time>2016-08-13T16:28:39.000Z</time>
      </trkpt>
      <trkpt lat="44.4952" lon="2.10978">
        <ele>262.39999389648</ele>
        <time>2016-08-13T16:28:40.000Z</time>
      </trkpt>
      <trkpt lat="44.49535" lon="2.10967">
        <ele>263.39999389648</ele>
        <time>2016-08-13T16:28:48.000Z</time>
      </trkpt>
      <trkpt lat="44.4955" lon="2.10958">
        <ele>264.39999389648</ele>
        <time>2016-08-13T16:28:56.000Z</time>
      </trkpt>
      <trkpt lat="44.49561" lon="2.10947">
        <ele>265.60000610352</ele>
        <time>2016-08-13T16:29:03.000Z</time>
      </trkpt>
      <trkpt lat="44.49573" lon="2.10936">
        <ele>266.60000610352</ele>
        <time>2016-08-13T16:29:10.000Z</time>
      </trkpt>
      <trkpt lat="44.49583" lon="2.10929">
        <ele>267.79998779297</ele>
        <time>2016-08-13T16:29:16.000Z</time>
      </trkpt>
      <trkpt lat="44.49596" lon="2.10921">
        <ele>268.79998779297</ele>
        <time>2016-08-13T16:29:24.000Z</time>
      </trkpt>
      <trkpt lat="44.49608" lon="2.10913">
        <ele>269.79998779297</ele>
        <time>2016-08-13T16:29:30.000Z</time>
      </trkpt>
      <trkpt lat="44.49623" lon="2.10905">
        <ele>271</ele>
        <time>2016-08-13T16:29:39.000Z</time>
      </trkpt>
      <trkpt lat="44.49639" lon="2.10897">
        <ele>272</ele>
        <time>2016-08-13T16:29:48.000Z</time>
      </trkpt>
      <trkpt lat="44.49658" lon="2.10887">
        <ele>272.79998779297</ele>
        <time>2016-08-13T16:29:59.000Z</time>
      </trkpt>
      <trkpt lat="44.49667" lon="2.10883">
        <ele>273</ele>
        <time>2016-08-13T16:30:04.000Z</time>
      </trkpt>
      <trkpt lat="44.49686" lon="2.10876">
        <ele>273.79998779297</ele>
        <time>2016-08-13T16:30:13.000Z</time>
      </trkpt>
      <trkpt lat="44.49699" lon="2.10869">
        <ele>274</ele>
        <time>2016-08-13T16:30:19.000Z</time>
      </trkpt>
      <trkpt lat="44.49716" lon="2.10862">
        <ele>274.79998779297</ele>
        <time>2016-08-13T16:30:27.000Z</time>
      </trkpt>
      <trkpt lat="44.49729" lon="2.10855">
        <ele>275.20001220703</ele>
        <time>2016-08-13T16:30:33.000Z</time>
      </trkpt>
      <trkpt lat="44.49748" lon="2.10847">
        <ele>276</ele>
        <time>2016-08-13T16:30:42.000Z</time>
      </trkpt>
      <trkpt lat="44.49754" lon="2.10845">
        <ele>276.20001220703</ele>
        <time>2016-08-13T16:30:45.000Z</time>
      </trkpt>
      <trkpt lat="44.49773" lon="2.10845">
        <ele>276.79998779297</ele>
        <time>2016-08-13T16:30:53.000Z</time>
      </trkpt>
      <trkpt lat="44.4979" lon="2.10841">
        <ele>277.20001220703</ele>
        <time>2016-08-13T16:31:00.000Z</time>
      </trkpt>
      <trkpt lat="44.4981" lon="2.10837">
        <ele>278</ele>
        <time>2016-08-13T16:31:09.000Z</time>
      </trkpt>
      <trkpt lat="44.4983" lon="2.10837">
        <ele>278.39999389648</ele>
        <time>2016-08-13T16:31:17.000Z</time>
      </trkpt>
      <trkpt lat="44.4985" lon="2.10838">
        <ele>279</ele>
        <time>2016-08-13T16:31:25.000Z</time>
      </trkpt>
      <trkpt lat="44.49862" lon="2.10837">
        <ele>279.39999389648</ele>
        <time>2016-08-13T16:31:30.000Z</time>
      </trkpt>
      <trkpt lat="44.49882" lon="2.10838">
        <ele>280.20001220703</ele>
        <time>2016-08-13T16:31:39.000Z</time>
      </trkpt>
      <trkpt lat="44.49884" lon="2.10837">
        <ele>280.39999389648</ele>
        <time>2016-08-13T16:31:40.000Z</time>
      </trkpt>
      <trkpt lat="44.49903" lon="2.1084">
        <ele>280.79998779297</ele>
        <time>2016-08-13T16:31:48.000Z</time>
      </trkpt>
      <trkpt lat="44.49921" lon="2.10839">
        <ele>279.79998779297</ele>
        <time>2016-08-13T16:31:55.000Z</time>
      </trkpt>
      <trkpt lat="44.4993" lon="2.10835">
        <ele>279.39999389648</ele>
        <time>2016-08-13T16:31:58.000Z</time>
      </trkpt>
      <trkpt lat="44.49948" lon="2.10842">
        <ele>278.79998779297</ele>
        <time>2016-08-13T16:32:05.000Z</time>
      </trkpt>
      <trkpt lat="44.4996" lon="2.10848">
        <ele>278.20001220703</ele>
        <time>2016-08-13T16:32:10.000Z</time>
      </trkpt>
      <trkpt lat="44.49978" lon="2.10861">
        <ele>277.39999389648</ele>
        <time>2016-08-13T16:32:17.000Z</time>
      </trkpt>
      <trkpt lat="44.49981" lon="2.10864">
        <ele>277.20001220703</ele>
        <time>2016-08-13T16:32:18.000Z</time>
      </trkpt>
      <trkpt lat="44.49996" lon="2.10879">
        <ele>276.20001220703</ele>
        <time>2016-08-13T16:32:24.000Z</time>
      </trkpt>
      <trkpt lat="44.49999" lon="2.10882">
        <ele>276.20001220703</ele>
        <time>2016-08-13T16:32:25.000Z</time>
      </trkpt>
      <trkpt lat="44.50008" lon="2.10893">
        <ele>275</ele>
        <time>2016-08-13T16:32:29.000Z</time>
      </trkpt>
      <trkpt lat="44.50021" lon="2.10904">
        <ele>274</ele>
        <time>2016-08-13T16:32:34.000Z</time>
      </trkpt>
      <trkpt lat="44.50036" lon="2.10919">
        <ele>272.79998779297</ele>
        <time>2016-08-13T16:32:40.000Z</time>
      </trkpt>
      <trkpt lat="44.5005" lon="2.1093">
        <ele>271.79998779297</ele>
        <time>2016-08-13T16:32:45.000Z</time>
      </trkpt>
      <trkpt lat="44.50066" lon="2.10947">
        <ele>270.79998779297</ele>
        <time>2016-08-13T16:32:52.000Z</time>
      </trkpt>
      <trkpt lat="44.50069" lon="2.10949">
        <ele>270.79998779297</ele>
        <time>2016-08-13T16:32:53.000Z</time>
      </trkpt>
      <trkpt lat="44.50087" lon="2.10948">
        <ele>270.60000610352</ele>
        <time>2016-08-13T16:33:00.000Z</time>
      </trkpt>
      <trkpt lat="44.50102" lon="2.10933">
        <ele>270.60000610352</ele>
        <time>2016-08-13T16:33:06.000Z</time>
      </trkpt>
      <trkpt lat="44.50117" lon="2.10918">
        <ele>270.60000610352</ele>
        <time>2016-08-13T16:33:12.000Z</time>
      </trkpt>
      <trkpt lat="44.50119" lon="2.10915">
        <ele>270.79998779297</ele>
        <time>2016-08-13T16:33:13.000Z</time>
      </trkpt>
      <trkpt lat="44.50135" lon="2.10897">
        <ele>271.39999389648</ele>
        <time>2016-08-13T16:33:19.000Z</time>
      </trkpt>
      <trkpt lat="44.5015" lon="2.10883">
        <ele>271.60000610352</ele>
        <time>2016-08-13T16:33:25.000Z</time>
      </trkpt>
      <trkpt lat="44.50154" lon="2.10878">
        <ele>272</ele>
        <time>2016-08-13T16:33:27.000Z</time>
      </trkpt>
      <trkpt lat="44.50169" lon="2.10863">
        <ele>272.39999389648</ele>
        <time>2016-08-13T16:33:33.000Z</time>
      </trkpt>
      <trkpt lat="44.50184" lon="2.10852">
        <ele>273</ele>
        <time>2016-08-13T16:33:39.000Z</time>
      </trkpt>
      <trkpt lat="44.50203" lon="2.10841">
        <ele>274</ele>
        <time>2016-08-13T16:33:47.000Z</time>
      </trkpt>
      <trkpt lat="44.50205" lon="2.10839">
        <ele>274.20001220703</ele>
        <time>2016-08-13T16:33:48.000Z</time>
      </trkpt>
      <trkpt lat="44.50207" lon="2.10837">
        <ele>274.20001220703</ele>
        <time>2016-08-13T16:33:49.000Z</time>
      </trkpt>
    </trkseg>
  </trk>
</gpx>